createdAt,value
2017-08-25T00:00:08.256Z,88.9
2017-08-25T00:01:09.873Z,88.8
2017-08-25T00:02:11.480Z,88.5
2017-08-25T00:03:13.094Z,88.4
2017-08-25T00:04:14.711Z,88.6
2017-08-25T00:05:16.327Z,88.8
2017-08-25T00:06:17.945Z,89.0
2017-08-25T00:07:19.552Z,89.1
2017-08-25T00:08:21.162Z,89.5
2017-08-25T00:09:22.774Z,90.0
2017-08-25T00:10:24.391Z,89.2
2017-08-25T00:11:26.007Z,89.5
2017-08-25T00:12:27.616Z,89.3
2017-08-25T00:13:29.229Z,89.4
2017-08-25T00:14:30.846Z,88.8
2017-08-25T00:15:32.455Z,89.3
2017-08-25T00:16:34.063Z,89.8
2017-08-25T00:17:35.675Z,88.6
2017-08-25T00:18:37.292Z,88.9
2017-08-25T00:19:38.906Z,88.8
2017-08-25T00:20:40.518Z,89.4
2017-08-25T00:21:42.128Z,89.3
2017-08-25T00:22:43.744Z,88.9
2017-08-25T00:23:45.352Z,89.2
2017-08-25T00:24:46.964Z,89.9
2017-08-25T00:25:48.578Z,90.2
2017-08-25T00:26:50.193Z,90.2
2017-08-25T00:27:51.811Z,90.5
2017-08-25T00:28:53.421Z,90.1
2017-08-25T00:29:55.031Z,90.5
2017-08-25T00:30:56.650Z,89.9
2017-08-25T00:31:58.264Z,90.1
2017-08-25T00:32:59.876Z,89.8
2017-08-25T00:34:01.488Z,90.0
2017-08-25T00:35:03.113Z,90.5
2017-08-25T00:36:04.722Z,89.6
2017-08-25T00:37:06.330Z,90.0
2017-08-25T00:38:07.940Z,90.5
2017-08-25T00:39:09.554Z,90.6
2017-08-25T00:40:11.163Z,90.3
2017-08-25T00:41:12.783Z,90.4
2017-08-25T00:42:14.399Z,90.4
2017-08-25T00:43:16.006Z,90.9
2017-08-25T00:44:17.618Z,90.6
2017-08-25T00:45:19.231Z,90.5
2017-08-25T00:46:20.847Z,90.3
2017-08-25T00:47:22.461Z,90.6
2017-08-25T00:48:24.076Z,90.9
2017-08-25T00:49:25.689Z,90.6
2017-08-25T00:50:27.299Z,90.5
2017-08-25T00:51:28.916Z,91.7
2017-08-25T00:52:30.531Z,91.6
2017-08-25T00:53:32.138Z,91.6
2017-08-25T00:54:33.753Z,90.9
2017-08-25T00:55:35.369Z,91.4
2017-08-25T00:56:36.987Z,91.3
2017-08-25T00:57:38.594Z,91.5
2017-08-25T00:58:40.205Z,92.3
2017-08-25T00:59:41.820Z,91.6
2017-08-25T01:00:43.436Z,92.2
2017-08-25T01:01:45.046Z,91.3
2017-08-25T01:02:46.657Z,91.5
2017-08-25T01:03:48.270Z,92.0
2017-08-25T01:04:49.886Z,92.2
2017-08-25T01:05:51.498Z,93.0
2017-08-25T01:06:53.121Z,92.7
2017-08-25T01:07:54.725Z,92.6
2017-08-25T01:08:56.364Z,92.7
2017-08-25T01:09:57.957Z,92.9
2017-08-25T01:10:59.572Z,92.9
2017-08-25T01:12:01.188Z,92.8
2017-08-25T01:13:02.793Z,93.0
2017-08-25T01:14:04.433Z,92.3
2017-08-25T01:15:06.019Z,92.9
2017-08-25T01:16:07.637Z,93.4
2017-08-25T01:17:09.251Z,92.7
2017-08-25T01:18:10.861Z,93.4
2017-08-25T01:19:12.471Z,92.9
2017-08-25T01:20:14.079Z,92.5
2017-08-25T01:21:15.691Z,92.7
2017-08-25T01:22:17.308Z,92.9
2017-08-25T01:23:18.924Z,92.9
2017-08-25T01:24:20.534Z,92.7
2017-08-25T01:25:22.147Z,92.9
2017-08-25T01:26:23.762Z,93.0
2017-08-25T01:27:25.376Z,92.7
2017-08-25T01:28:26.986Z,92.6
2017-08-25T01:29:28.598Z,92.4
2017-08-25T01:30:30.216Z,92.6
2017-08-25T01:31:31.833Z,92.8
2017-08-25T01:32:33.444Z,92.6
2017-08-25T01:33:35.053Z,92.5
2017-08-25T01:34:36.667Z,92.5
2017-08-25T01:35:38.282Z,92.9
2017-08-25T01:36:39.891Z,92.1
2017-08-25T01:37:41.502Z,92.1
2017-08-25T01:38:43.121Z,92.0
2017-08-25T01:39:44.738Z,91.9
2017-08-25T01:40:46.346Z,92.0
2017-08-25T01:41:47.957Z,91.7
2017-08-25T01:42:49.570Z,91.5
2017-08-25T01:43:51.179Z,92.1
2017-08-25T01:44:52.796Z,91.6
2017-08-25T01:45:54.413Z,91.2
2017-08-25T01:46:56.022Z,91.4
2017-08-25T01:47:57.630Z,91.7
2017-08-25T01:48:59.245Z,91.7
2017-08-25T01:50:00.852Z,91.4
2017-08-25T01:51:02.462Z,91.1
2017-08-25T01:52:04.079Z,91.5
2017-08-25T01:53:05.694Z,91.5
2017-08-25T01:54:07.308Z,91.5
2017-08-25T01:55:08.916Z,91.9
2017-08-25T01:56:10.525Z,91.5
2017-08-25T01:57:12.140Z,91.3
2017-08-25T01:58:13.751Z,91.2
2017-08-25T01:59:15.371Z,91.9
2017-08-25T02:00:16.994Z,92.1
2017-08-25T02:01:18.613Z,92.1
2017-08-25T02:02:20.226Z,91.8
2017-08-25T02:03:21.839Z,92.1
2017-08-25T02:04:23.464Z,92.0
2017-08-25T02:05:25.082Z,92.0
2017-08-25T02:06:26.695Z,92.3
2017-08-25T02:07:28.318Z,92.0
2017-08-25T02:08:29.931Z,92.1
2017-08-25T02:09:31.550Z,92.1
2017-08-25T02:10:33.162Z,91.8
2017-08-25T02:11:34.775Z,91.6
2017-08-25T02:12:36.401Z,91.9
2017-08-25T02:13:38.019Z,92.3
2017-08-25T02:14:39.630Z,91.6
2017-08-25T02:15:41.247Z,91.3
2017-08-25T02:16:42.868Z,91.6
2017-08-25T02:17:44.493Z,91.5
2017-08-25T02:18:46.108Z,92.3
2017-08-25T02:19:47.719Z,92.2
2017-08-25T02:20:49.341Z,92.2
2017-08-25T02:21:50.952Z,91.9
2017-08-25T02:22:52.569Z,92.0
2017-08-25T02:23:54.186Z,91.9
2017-08-25T02:24:55.808Z,91.5
2017-08-25T02:25:57.452Z,91.3
2017-08-25T02:26:59.047Z,91.8
2017-08-25T02:28:00.664Z,91.5
2017-08-25T02:29:02.284Z,91.6
2017-08-25T02:30:03.904Z,92.2
2017-08-25T02:31:05.516Z,91.7
2017-08-25T02:32:07.138Z,92.0
2017-08-25T02:33:08.756Z,92.0
2017-08-25T02:34:10.374Z,92.0
2017-08-25T02:35:11.989Z,91.9
2017-08-25T02:36:13.603Z,92.0
2017-08-25T02:37:15.231Z,92.0
2017-08-25T02:38:16.854Z,92.1
2017-08-25T02:39:18.464Z,92.3
2017-08-25T02:40:20.079Z,92.0
2017-08-25T02:41:21.697Z,92.6
2017-08-25T02:42:23.308Z,92.4
2017-08-25T02:43:24.937Z,92.2
2017-08-25T02:44:26.556Z,92.5
2017-08-25T02:45:28.166Z,92.4
2017-08-25T02:46:29.785Z,92.5
2017-08-25T02:47:31.404Z,92.6
2017-08-25T02:48:33.029Z,92.5
2017-08-25T02:49:34.641Z,92.6
2017-08-25T02:50:36.256Z,92.8
2017-08-25T02:51:37.878Z,92.4
2017-08-25T02:52:39.499Z,92.7
2017-08-25T02:53:41.108Z,92.8
2017-08-25T02:54:42.730Z,92.9
2017-08-25T02:55:44.341Z,93.4
2017-08-25T02:56:45.957Z,93.8
2017-08-25T02:57:47.585Z,93.5
2017-08-25T02:58:49.217Z,93.4
2017-08-25T02:59:50.834Z,93.7
2017-08-25T03:00:52.457Z,94.2
2017-08-25T03:01:54.069Z,94.5
2017-08-25T03:02:55.682Z,94.3
2017-08-25T03:03:57.307Z,94.6
2017-08-25T03:04:58.933Z,94.4
2017-08-25T03:06:00.540Z,94.3
2017-08-25T03:07:02.166Z,95.4
2017-08-25T03:08:03.792Z,95.4
2017-08-25T03:09:05.408Z,95.0
2017-08-25T03:10:07.030Z,95.8
2017-08-25T03:11:08.652Z,95.3
2017-08-25T03:12:10.264Z,95.5
2017-08-25T03:13:11.887Z,95.8
2017-08-25T03:14:13.500Z,95.7
2017-08-25T03:15:15.109Z,95.4
2017-08-25T03:16:16.736Z,95.4
2017-08-25T03:17:18.353Z,95.8
2017-08-25T03:18:19.968Z,95.6
2017-08-25T03:19:21.595Z,95.6
2017-08-25T03:20:23.217Z,95.5
2017-08-25T03:21:24.837Z,95.6
2017-08-25T03:22:26.448Z,95.8
2017-08-25T03:23:28.065Z,95.6
2017-08-25T03:24:29.683Z,96.6
2017-08-25T03:25:31.307Z,96.6
2017-08-25T03:26:32.922Z,96.2
2017-08-25T03:27:34.542Z,96.7
2017-08-25T03:28:36.165Z,96.1
2017-08-25T03:29:37.776Z,96.8
2017-08-25T03:30:39.392Z,96.3
2017-08-25T03:31:41.006Z,96.8
2017-08-25T03:32:42.626Z,96.7
2017-08-25T03:33:44.253Z,96.4
2017-08-25T03:34:45.865Z,96.8
2017-08-25T03:35:47.475Z,97.0
2017-08-25T03:36:49.098Z,97.0
2017-08-25T03:37:50.715Z,97.1
2017-08-25T03:38:52.328Z,97.0
2017-08-25T03:39:53.943Z,97.7
2017-08-25T03:40:55.570Z,97.4
2017-08-25T03:41:57.189Z,97.4
2017-08-25T03:42:58.801Z,97.2
2017-08-25T03:44:00.416Z,97.4
2017-08-25T03:45:02.036Z,97.8
2017-08-25T03:46:03.659Z,97.6
2017-08-25T03:47:05.274Z,97.6
2017-08-25T03:48:06.892Z,97.8
2017-08-25T03:49:08.507Z,97.5
2017-08-25T03:50:10.128Z,97.8
2017-08-25T03:51:11.745Z,98.1
2017-08-25T03:52:13.362Z,98.6
2017-08-25T03:53:14.974Z,98.9
2017-08-25T03:54:16.589Z,99.0
2017-08-25T03:55:18.213Z,98.7
2017-08-25T03:56:19.828Z,98.9
2017-08-25T03:57:21.443Z,98.6
2017-08-25T03:58:23.059Z,98.5
2017-08-25T03:59:24.681Z,98.7
2017-08-25T04:00:26.306Z,98.5
2017-08-25T04:01:27.919Z,98.9
2017-08-25T04:02:29.535Z,98.2
2017-08-25T04:03:31.156Z,98.5
2017-08-25T04:04:32.770Z,98.7
2017-08-25T04:05:34.384Z,98.7
2017-08-25T04:06:35.998Z,98.8
2017-08-25T04:07:37.623Z,99.4
2017-08-25T04:08:39.247Z,98.6
2017-08-25T04:09:40.861Z,98.6
2017-08-25T04:10:42.476Z,99.3
2017-08-25T04:11:44.096Z,98.9
2017-08-25T04:12:45.717Z,99.3
2017-08-25T04:13:47.330Z,99.0
2017-08-25T04:14:48.954Z,98.7
2017-08-25T04:15:50.581Z,99.1
2017-08-25T04:16:52.193Z,99.0
2017-08-25T04:17:53.809Z,99.3
2017-08-25T04:18:55.428Z,98.9
2017-08-25T04:19:57.047Z,98.8
2017-08-25T04:20:58.664Z,99.5
2017-08-25T04:22:00.281Z,98.9
2017-08-25T04:23:01.906Z,99.7
2017-08-25T04:24:03.525Z,99.7
2017-08-25T04:25:05.144Z,99.2
2017-08-25T04:26:06.756Z,98.7
2017-08-25T04:27:08.367Z,99.1
2017-08-25T04:28:09.999Z,99.1
2017-08-25T04:29:11.612Z,98.8
2017-08-25T04:30:13.227Z,99.2
2017-08-25T04:31:14.845Z,99.3
2017-08-25T04:32:16.476Z,99.1
2017-08-25T04:33:18.102Z,98.9
2017-08-25T04:34:19.721Z,98.7
2017-08-25T04:35:21.338Z,98.9
2017-08-25T04:36:22.952Z,99.7
2017-08-25T04:37:24.571Z,99.6
2017-08-25T04:38:26.189Z,99.4
2017-08-25T04:39:27.812Z,99.5
2017-08-25T04:40:29.440Z,99.4
2017-08-25T04:41:31.061Z,99.4
2017-08-25T04:42:32.679Z,99.5
2017-08-25T04:43:34.293Z,99.5
2017-08-25T04:44:35.918Z,98.8
2017-08-25T04:45:37.545Z,99.3
2017-08-25T04:46:39.163Z,99.7
2017-08-25T04:47:40.789Z,99.3
2017-08-25T04:48:42.401Z,99.2
2017-08-25T04:49:44.021Z,99.7
2017-08-25T04:50:45.648Z,99.5
2017-08-25T04:51:47.262Z,99.5
2017-08-25T04:52:48.880Z,99.2
2017-08-25T04:53:50.512Z,99.7
2017-08-25T04:54:52.136Z,98.8
2017-08-25T04:55:53.747Z,98.9
2017-08-25T04:56:55.365Z,98.9
2017-08-25T04:57:56.981Z,99.2
2017-08-25T04:58:58.612Z,98.6
2017-08-25T05:00:00.241Z,98.7
2017-08-25T05:01:01.854Z,98.8
2017-08-25T05:02:03.479Z,98.5
2017-08-25T05:03:05.105Z,98.5
2017-08-25T05:04:06.721Z,98.8
2017-08-25T05:05:08.342Z,99.0
2017-08-25T05:06:09.965Z,98.5
2017-08-25T05:07:11.590Z,98.7
2017-08-25T05:08:13.220Z,98.1
2017-08-25T05:09:14.836Z,98.0
2017-08-25T05:10:16.455Z,97.6
2017-08-25T05:11:18.087Z,97.3
2017-08-25T05:12:19.706Z,97.1
2017-08-25T05:13:21.324Z,97.4
2017-08-25T05:14:22.949Z,97.4
2017-08-25T05:15:24.574Z,97.2
2017-08-25T05:16:26.199Z,97.0
2017-08-25T05:17:27.817Z,96.6
2017-08-25T05:18:29.438Z,96.3
2017-08-25T05:19:31.063Z,96.2
2017-08-25T05:20:32.683Z,96.3
2017-08-25T05:21:34.394Z,96.3
2017-08-25T05:22:36.012Z,95.9
2017-08-25T05:23:37.645Z,95.6
2017-08-25T05:24:39.264Z,95.3
2017-08-25T05:25:40.883Z,95.0
2017-08-25T05:26:42.513Z,94.7
2017-08-25T05:27:44.137Z,94.9
2017-08-25T05:28:45.757Z,94.4
2017-08-25T05:29:47.379Z,94.5
2017-08-25T05:30:48.996Z,93.9
2017-08-25T05:31:50.624Z,93.7
2017-08-25T05:32:52.246Z,93.2
2017-08-25T05:33:53.868Z,93.3
2017-08-25T05:34:55.485Z,93.2
2017-08-25T05:35:57.117Z,92.9
2017-08-25T05:36:58.743Z,92.5
2017-08-25T05:38:00.359Z,92.3
2017-08-25T05:39:01.981Z,92.3
2017-08-25T05:40:03.600Z,91.8
2017-08-25T05:41:05.232Z,92.1
2017-08-25T05:42:06.930Z,91.9
2017-08-25T05:43:08.554Z,91.5
2017-08-25T05:44:10.188Z,91.5
2017-08-25T05:45:12.218Z,91.5
2017-08-25T05:46:13.818Z,91.5
2017-08-25T05:47:15.441Z,90.8
2017-08-25T05:48:17.059Z,91.1
2017-08-25T05:49:18.692Z,90.4
2017-08-25T05:50:20.310Z,90.0
2017-08-25T05:51:21.934Z,90.3
2017-08-25T05:52:23.559Z,90.0
2017-08-25T05:53:25.188Z,90.1
2017-08-25T05:54:26.806Z,89.7
2017-08-25T05:55:28.424Z,90.2
2017-08-25T05:56:30.351Z,89.8
2017-08-25T05:57:31.968Z,89.8
2017-08-25T05:58:33.599Z,89.1
2017-08-25T05:59:35.215Z,88.6
2017-08-25T06:00:36.849Z,88.7
2017-08-25T06:01:38.476Z,88.6
2017-08-25T06:02:40.093Z,88.6
2017-08-25T06:03:41.716Z,88.4
2017-08-25T06:04:43.345Z,88.1
2017-08-25T06:05:44.971Z,88.1
2017-08-25T06:06:46.589Z,88.0
2017-08-25T06:07:48.209Z,87.3
2017-08-25T06:08:49.839Z,87.2
2017-08-25T06:09:51.467Z,87.4
2017-08-25T06:10:53.089Z,87.0
2017-08-25T06:11:54.712Z,86.8
2017-08-25T06:12:56.341Z,87.1
2017-08-25T06:13:57.972Z,86.6
2017-08-25T06:14:59.588Z,86.0
2017-08-25T06:16:01.205Z,85.7
2017-08-25T06:17:02.838Z,85.8
2017-08-25T06:18:04.463Z,86.0
2017-08-25T06:19:06.081Z,85.9
2017-08-25T06:20:07.707Z,85.5
2017-08-25T06:21:09.333Z,84.9
2017-08-25T06:22:10.961Z,85.0
2017-08-25T06:23:12.578Z,84.9
2017-08-25T06:24:14.200Z,84.7
2017-08-25T06:25:15.827Z,84.5
2017-08-25T06:26:17.457Z,84.2
2017-08-25T06:27:19.083Z,84.2
2017-08-25T06:28:20.702Z,84.1
2017-08-25T06:29:22.332Z,84.3
2017-08-25T06:30:23.955Z,83.9
2017-08-25T06:31:25.574Z,83.7
2017-08-25T06:32:27.197Z,82.6
2017-08-25T06:33:28.824Z,83.3
2017-08-25T06:34:30.480Z,83.4
2017-08-25T06:35:32.097Z,83.1
2017-08-25T06:36:33.717Z,81.9
2017-08-25T06:37:35.348Z,81.3
2017-08-25T06:38:36.975Z,80.6
2017-08-25T06:39:38.600Z,79.5
2017-08-25T06:40:40.224Z,76.8
2017-08-25T06:41:42.260Z,76.0
2017-08-25T06:42:43.891Z,74.4
2017-08-25T06:43:45.515Z,71.3
2017-08-25T06:44:47.139Z,68.7
2017-08-25T06:45:48.761Z,69.5
2017-08-25T06:46:50.402Z,70.2
2017-08-25T06:47:52.030Z,71.0
2017-08-25T06:48:53.654Z,71.2
2017-08-25T06:49:55.285Z,71.9
2017-08-25T06:50:56.912Z,72.2
2017-08-25T06:51:58.534Z,70.9
2017-08-25T06:53:00.162Z,69.3
2017-08-25T06:54:01.792Z,69.0
2017-08-25T06:55:03.424Z,69.0
2017-08-25T06:56:05.048Z,68.6
2017-08-25T06:57:06.670Z,67.7
2017-08-25T06:58:08.303Z,67.0
2017-08-25T06:59:09.933Z,65.7
2017-08-25T07:00:11.554Z,66.7
2017-08-25T07:01:13.185Z,67.1
2017-08-25T07:02:14.815Z,63.0
2017-08-25T07:03:16.438Z,60.2
2017-08-25T07:04:18.073Z,57.2
2017-08-25T07:05:19.705Z,57.2
2017-08-25T07:06:21.328Z,57.1
2017-08-25T07:07:22.954Z,56.4
2017-08-25T07:08:24.587Z,55.5
2017-08-25T07:09:26.218Z,54.7
2017-08-25T07:10:27.843Z,52.7
2017-08-25T07:11:29.467Z,50.8
2017-08-25T07:12:31.124Z,49.5
2017-08-25T07:13:32.732Z,48.2
2017-08-25T07:14:34.358Z,46.5
2017-08-25T07:15:35.988Z,46.2
2017-08-25T07:16:37.626Z,44.5
2017-08-25T07:17:39.265Z,43.8
2017-08-25T07:18:40.889Z,42.4
2017-08-25T07:19:42.516Z,41.9
2017-08-25T07:20:44.152Z,42.8
2017-08-25T07:21:45.783Z,41.5
2017-08-25T07:22:47.410Z,41.4
2017-08-25T07:23:49.040Z,41.2
2017-08-25T07:24:50.684Z,40.7
2017-08-25T07:25:52.322Z,39.2
2017-08-25T07:26:53.951Z,40.0
2017-08-25T07:27:55.583Z,40.0
2017-08-25T07:28:57.219Z,40.2
2017-08-25T07:29:58.860Z,39.6
2017-08-25T07:31:00.483Z,39.8
2017-08-25T07:32:02.118Z,38.3
2017-08-25T07:33:03.753Z,38.7
2017-08-25T07:34:05.383Z,37.8
2017-08-25T07:35:07.014Z,35.5
2017-08-25T07:36:08.643Z,34.8
2017-08-25T07:37:10.287Z,34.3
2017-08-25T07:38:11.932Z,31.3
2017-08-25T07:39:13.563Z,30.9
2017-08-25T07:40:15.195Z,31.2
2017-08-25T07:41:16.828Z,31.5
2017-08-25T07:42:18.464Z,30.6
2017-08-25T07:43:20.096Z,28.4
2017-08-25T07:44:21.729Z,27.9
2017-08-25T07:45:23.372Z,25.6
2017-08-25T07:46:25.012Z,26.5
2017-08-25T07:47:26.642Z,28.1
2017-08-25T07:48:28.276Z,26.9
2017-08-25T07:49:29.921Z,28.0
2017-08-25T07:50:31.564Z,28.6
2017-08-25T07:51:33.200Z,29.1
2017-08-25T07:52:34.835Z,28.6
2017-08-25T07:53:36.471Z,28.0
2017-08-25T07:54:38.106Z,27.1
2017-08-25T07:55:39.740Z,26.2
2017-08-25T07:56:41.376Z,26.0
2017-08-25T07:57:43.017Z,25.5
2017-08-25T07:58:44.661Z,26.5
2017-08-25T07:59:46.292Z,25.9
2017-08-25T08:00:47.930Z,26.6
2017-08-25T08:01:49.568Z,26.9
2017-08-25T08:02:51.210Z,26.8
2017-08-25T08:03:52.841Z,25.6
2017-08-25T08:04:54.479Z,25.6
2017-08-25T08:05:56.121Z,24.4
2017-08-25T08:06:57.754Z,24.4
2017-08-25T08:07:59.401Z,24.9
2017-08-25T08:09:01.039Z,25.1
2017-08-25T08:10:02.670Z,25.2
2017-08-25T08:11:04.309Z,24.7
2017-08-25T08:12:05.956Z,24.5
2017-08-25T08:13:07.586Z,24.7
2017-08-25T08:14:09.220Z,24.4
2017-08-25T08:15:10.858Z,23.2
2017-08-25T08:16:12.504Z,23.6
2017-08-25T08:17:14.144Z,22.6
2017-08-25T08:18:15.775Z,20.7
2017-08-25T08:19:17.438Z,21.0
2017-08-25T08:20:19.060Z,20.3
2017-08-25T08:21:20.695Z,20.6
2017-08-25T08:22:22.332Z,21.5
2017-08-25T08:23:23.969Z,21.7
2017-08-25T08:24:25.609Z,21.7
2017-08-25T08:25:27.257Z,21.5
2017-08-25T08:26:28.891Z,23.5
2017-08-25T08:27:30.527Z,22.9
2017-08-25T08:28:32.174Z,22.9
2017-08-25T08:29:33.816Z,22.9
2017-08-25T08:30:35.447Z,22.0
2017-08-25T08:31:37.087Z,21.1
2017-08-25T08:32:38.728Z,21.1
2017-08-25T08:33:40.370Z,21.1
2017-08-25T08:34:42.006Z,20.6
2017-08-25T08:35:43.643Z,21.8
2017-08-25T08:36:45.288Z,22.8
2017-08-25T08:37:46.921Z,22.0
2017-08-25T08:38:48.555Z,21.4
2017-08-25T08:39:50.189Z,22.5
2017-08-25T08:40:51.842Z,22.4
2017-08-25T08:41:53.483Z,23.2
2017-08-25T08:42:55.121Z,22.2
2017-08-25T08:43:56.762Z,22.0
2017-08-25T08:44:58.393Z,22.8
2017-08-25T08:46:00.039Z,23.1
2017-08-25T08:47:01.679Z,22.2
2017-08-25T08:48:03.313Z,22.2
2017-08-25T08:49:04.949Z,21.9
2017-08-25T08:50:06.593Z,19.4
2017-08-25T08:51:08.239Z,20.7
2017-08-25T08:52:09.872Z,20.2
2017-08-25T08:53:11.509Z,20.2
2017-08-25T08:54:13.151Z,20.6
2017-08-25T08:55:14.795Z,20.9
2017-08-25T08:56:16.431Z,20.8
2017-08-25T08:57:18.070Z,20.9
2017-08-25T08:58:19.722Z,20.3
2017-08-25T08:59:21.372Z,20.3
2017-08-25T09:00:23.003Z,19.5
2017-08-25T09:01:24.639Z,18.5
2017-08-25T09:02:26.285Z,18.4
2017-08-25T09:03:27.925Z,18.9
2017-08-25T09:04:29.564Z,19.8
2017-08-25T09:05:31.200Z,20.0
2017-08-25T09:06:33.320Z,19.3
2017-08-25T09:07:34.961Z,18.6
2017-08-25T09:08:36.599Z,18.1
2017-08-25T09:09:38.233Z,18.5
2017-08-25T09:10:39.882Z,18.7
2017-08-25T09:11:41.523Z,19.1
2017-08-25T09:12:43.160Z,19.7
2017-08-25T09:13:44.795Z,19.6
2017-08-25T09:14:46.437Z,20.8
2017-08-25T09:15:48.089Z,19.7
2017-08-25T09:16:49.728Z,19.6
2017-08-25T09:17:51.366Z,19.6
2017-08-25T09:18:53.014Z,19.2
2017-08-25T09:19:54.657Z,19.6
2017-08-25T09:20:56.296Z,19.8
2017-08-25T09:21:57.931Z,19.4
2017-08-25T09:22:59.568Z,18.5
2017-08-25T09:24:01.218Z,18.8
2017-08-25T09:25:02.865Z,18.8
2017-08-25T09:26:04.501Z,18.7
2017-08-25T09:27:06.144Z,19.6
2017-08-25T09:28:07.789Z,19.5
2017-08-25T09:29:09.432Z,19.7
2017-08-25T09:30:11.072Z,18.4
2017-08-25T09:31:12.714Z,19.3
2017-08-25T09:32:14.359Z,18.7
2017-08-25T09:33:15.998Z,18.6
2017-08-25T09:34:17.640Z,18.5
2017-08-25T09:35:19.276Z,18.3
2017-08-25T09:36:20.925Z,18.7
2017-08-25T09:37:22.572Z,19.7
2017-08-25T09:38:24.209Z,17.5
2017-08-25T09:39:25.849Z,16.8
2017-08-25T09:40:27.493Z,17.0
2017-08-25T09:41:29.143Z,18.9
2017-08-25T09:42:30.780Z,19.5
2017-08-25T09:43:32.418Z,19.5
2017-08-25T09:44:34.061Z,18.9
2017-08-25T09:45:35.701Z,19.4
2017-08-25T09:46:37.339Z,18.6
2017-08-25T09:47:38.980Z,17.9
2017-08-25T09:48:40.633Z,17.2
2017-08-25T09:49:42.279Z,17.5
2017-08-25T09:50:43.920Z,17.8
2017-08-25T09:51:45.558Z,18.2
2017-08-25T09:52:47.196Z,19.5
2017-08-25T09:53:48.841Z,20.1
2017-08-25T09:54:50.502Z,20.8
2017-08-25T09:55:52.127Z,20.5
2017-08-25T09:56:53.765Z,20.7
2017-08-25T09:57:55.409Z,19.5
2017-08-25T09:58:57.057Z,19.7
2017-08-25T09:59:58.693Z,19.7
2017-08-25T10:01:00.332Z,19.1
2017-08-25T10:02:01.985Z,18.7
2017-08-25T10:03:03.632Z,19.6
2017-08-25T10:04:05.264Z,19.1
2017-08-25T10:05:06.905Z,18.7
2017-08-25T10:06:08.547Z,19.5
2017-08-25T10:07:10.194Z,19.5
2017-08-25T10:08:11.832Z,19.6
2017-08-25T10:09:13.474Z,19.3
2017-08-25T10:10:15.126Z,20.0
2017-08-25T10:11:16.769Z,18.7
2017-08-25T10:12:18.406Z,19.6
2017-08-25T10:13:20.045Z,20.0
2017-08-25T10:14:21.693Z,17.9
2017-08-25T10:15:23.338Z,17.5
2017-08-25T10:16:24.978Z,18.5
2017-08-25T10:17:26.618Z,19.4
2017-08-25T10:18:28.261Z,19.9
2017-08-25T10:19:29.906Z,17.2
2017-08-25T10:20:31.545Z,17.1
2017-08-25T10:21:33.184Z,17.4
2017-08-25T10:22:34.836Z,18.7
2017-08-25T10:23:36.474Z,17.4
2017-08-25T10:24:38.116Z,17.1
2017-08-25T10:25:39.762Z,18.2
2017-08-25T10:26:41.402Z,17.4
2017-08-25T10:27:43.042Z,18.1
2017-08-25T10:28:44.683Z,18.7
2017-08-25T10:29:46.335Z,17.8
2017-08-25T10:30:47.977Z,19.1
2017-08-25T10:31:49.620Z,19.1
2017-08-25T10:32:51.260Z,18.8
2017-08-25T10:33:52.909Z,19.3
2017-08-25T10:34:54.560Z,18.7
2017-08-25T10:35:56.203Z,18.6
2017-08-25T10:36:57.839Z,18.5
2017-08-25T10:37:59.487Z,17.4
2017-08-25T10:39:01.130Z,17.3
2017-08-25T10:40:02.767Z,18.5
2017-08-25T10:41:04.406Z,19.1
2017-08-25T10:42:06.058Z,19.9
2017-08-25T10:43:07.709Z,18.3
2017-08-25T10:44:09.350Z,19.6
2017-08-25T10:45:10.995Z,18.6
2017-08-25T10:46:12.638Z,18.5
2017-08-25T10:47:14.284Z,19.9
2017-08-25T10:48:15.921Z,19.8
2017-08-25T10:49:17.566Z,19.5
2017-08-25T10:50:19.216Z,19.7
2017-08-25T10:51:20.851Z,19.9
2017-08-25T10:52:22.498Z,20.6
2017-08-25T10:53:24.132Z,19.5
2017-08-25T10:54:25.783Z,19.9
2017-08-25T10:55:27.425Z,18.1
2017-08-25T10:56:29.068Z,17.2
2017-08-25T10:57:30.717Z,17.4
2017-08-25T10:58:32.354Z,18.2
2017-08-25T10:59:33.999Z,18.5
2017-08-25T11:00:35.650Z,17.3
2017-08-25T11:01:37.285Z,18.3
2017-08-25T11:02:38.925Z,18.3
2017-08-25T11:03:40.566Z,18.9
2017-08-25T11:04:42.218Z,17.9
2017-08-25T11:05:43.863Z,17.1
2017-08-25T11:06:45.501Z,17.4
2017-08-25T11:07:47.156Z,17.2
2017-08-25T11:08:48.799Z,18.3
2017-08-25T11:09:50.438Z,18.3
2017-08-25T11:10:52.080Z,18.5
2017-08-25T11:11:53.717Z,18.5
2017-08-25T11:12:55.371Z,19.5
2017-08-25T11:13:57.013Z,19.3
2017-08-25T11:14:58.658Z,18.2
2017-08-25T11:16:00.304Z,18.8
2017-08-25T11:17:01.947Z,18.1
2017-08-25T11:18:03.597Z,18.5
2017-08-25T11:19:05.233Z,18.7
2017-08-25T11:20:06.872Z,17.3
2017-08-25T11:21:08.516Z,17.5
2017-08-25T11:22:10.170Z,18.5
2017-08-25T11:23:11.801Z,17.6
2017-08-25T11:24:13.443Z,17.5
2017-08-25T11:25:15.090Z,18.2
2017-08-25T11:26:16.733Z,19.7
2017-08-25T11:27:18.371Z,18.4
2017-08-25T11:28:20.022Z,18.4
2017-08-25T11:29:21.664Z,18.2
2017-08-25T11:30:23.310Z,18.5
2017-08-25T11:31:24.943Z,19.6
2017-08-25T11:32:26.580Z,19.5
2017-08-25T11:33:28.231Z,19.9
2017-08-25T11:34:29.875Z,19.2
2017-08-25T11:35:31.512Z,19.2
2017-08-25T11:36:33.151Z,18.8
2017-08-25T11:37:34.799Z,19.6
2017-08-25T11:38:36.440Z,19.1
2017-08-25T11:39:38.077Z,19.9
2017-08-25T11:40:39.717Z,19.6
2017-08-25T11:41:41.360Z,19.7
2017-08-25T11:42:43.006Z,20.2
2017-08-25T11:43:44.647Z,19.8
2017-08-25T11:44:46.287Z,19.8
2017-08-25T11:45:47.934Z,19.7
2017-08-25T11:46:49.572Z,20.9
2017-08-25T11:47:51.208Z,22.1
2017-08-25T11:48:52.849Z,21.1
2017-08-25T11:49:54.493Z,20.6
2017-08-25T11:50:56.143Z,21.7
2017-08-25T11:51:57.778Z,21.4
2017-08-25T11:52:59.414Z,21.7
2017-08-25T11:54:01.057Z,21.3
2017-08-25T11:55:02.712Z,20.8
2017-08-25T11:56:04.347Z,20.7
2017-08-25T11:57:05.983Z,20.7
2017-08-25T11:58:07.634Z,21.0
2017-08-25T11:59:09.273Z,22.6
2017-08-25T12:00:10.906Z,21.6
2017-08-25T12:01:12.554Z,20.8
2017-08-25T12:02:14.188Z,21.5
2017-08-25T12:03:15.826Z,20.7
2017-08-25T12:04:17.470Z,21.0
2017-08-25T12:05:19.105Z,21.3
2017-08-25T12:06:20.738Z,21.4
2017-08-25T12:07:22.373Z,20.5
2017-08-25T12:08:24.022Z,21.0
2017-08-25T12:09:25.662Z,20.7
2017-08-25T12:10:27.297Z,21.5
2017-08-25T12:11:28.935Z,21.2
2017-08-25T12:12:30.581Z,19.7
2017-08-25T12:13:32.217Z,20.1
2017-08-25T12:14:33.852Z,21.0
2017-08-25T12:15:35.497Z,21.5
2017-08-25T12:16:37.135Z,23.2
2017-08-25T12:17:38.776Z,23.0
2017-08-25T12:18:40.409Z,23.2
2017-08-25T12:19:42.049Z,23.5
2017-08-25T12:20:43.693Z,23.3
2017-08-25T12:21:45.334Z,24.4
2017-08-25T12:22:46.972Z,23.3
2017-08-25T12:23:48.603Z,23.8
2017-08-25T12:24:50.244Z,23.8
2017-08-25T12:25:51.892Z,24.0
2017-08-25T12:26:53.526Z,23.0
2017-08-25T12:27:55.159Z,23.3
2017-08-25T12:28:56.800Z,23.3
2017-08-25T12:29:58.428Z,23.0
2017-08-25T12:31:00.066Z,23.9
2017-08-25T12:32:01.699Z,22.7
2017-08-25T12:33:03.346Z,23.3
2017-08-25T12:34:04.980Z,23.9
2017-08-25T12:35:06.624Z,24.4
2017-08-25T12:36:08.256Z,23.8
2017-08-25T12:37:09.892Z,23.0
2017-08-25T12:38:11.527Z,22.7
2017-08-25T12:39:13.167Z,21.9
2017-08-25T12:40:14.811Z,22.0
2017-08-25T12:41:16.444Z,23.7
2017-08-25T12:42:18.079Z,23.4
2017-08-25T12:43:19.715Z,23.6
2017-08-25T12:44:21.348Z,24.5
2017-08-25T12:45:22.981Z,23.3
2017-08-25T12:46:24.614Z,23.8
2017-08-25T12:47:26.261Z,24.4
2017-08-25T12:48:27.899Z,24.0
2017-08-25T12:49:29.552Z,25.3
2017-08-25T12:50:31.167Z,25.6
2017-08-25T12:51:32.816Z,25.1
2017-08-25T12:52:34.448Z,25.3
2017-08-25T12:53:36.079Z,25.5
2017-08-25T12:54:37.711Z,25.0
2017-08-25T12:55:39.357Z,26.1
2017-08-25T12:56:40.993Z,25.4
2017-08-25T12:57:42.627Z,25.8
2017-08-25T12:58:44.257Z,25.8
2017-08-25T12:59:45.901Z,26.4
2017-08-25T13:00:47.539Z,26.4
2017-08-25T13:01:49.171Z,28.1
2017-08-25T13:02:50.810Z,28.3
2017-08-25T13:03:52.446Z,27.7
2017-08-25T13:04:54.084Z,28.0
2017-08-25T13:05:55.715Z,26.7
2017-08-25T13:06:57.346Z,28.2
2017-08-25T13:07:58.980Z,28.1
2017-08-25T13:09:00.618Z,28.6
2017-08-25T13:10:02.262Z,28.5
2017-08-25T13:11:03.892Z,29.0
2017-08-25T13:12:05.521Z,29.1
2017-08-25T13:13:07.166Z,28.1
2017-08-25T13:14:08.803Z,29.1
2017-08-25T13:15:10.434Z,27.9
2017-08-25T13:16:12.067Z,28.0
2017-08-25T13:17:13.713Z,27.8
2017-08-25T13:18:15.351Z,27.6
2017-08-25T13:19:16.979Z,27.8
2017-08-25T13:20:18.611Z,27.7
2017-08-25T13:21:20.249Z,29.2
2017-08-25T13:22:21.895Z,29.3
2017-08-25T13:23:23.523Z,29.1
2017-08-25T13:24:25.156Z,29.0
2017-08-25T13:25:26.797Z,28.9
2017-08-25T13:26:28.430Z,28.9
2017-08-25T13:27:30.055Z,28.9
2017-08-25T13:28:31.688Z,29.2
2017-08-25T13:29:33.325Z,30.3
2017-08-25T13:30:34.968Z,30.1
2017-08-25T13:31:36.597Z,30.9
2017-08-25T13:32:38.228Z,31.4
2017-08-25T13:33:39.863Z,31.8
2017-08-25T13:34:41.502Z,30.8
2017-08-25T13:35:43.134Z,30.5
2017-08-25T13:36:44.768Z,30.8
2017-08-25T13:37:46.408Z,30.5
2017-08-25T13:38:48.042Z,30.7
2017-08-25T13:39:49.673Z,31.2